createdAt,value
2023-03-11T00:00:54.572Z,13.38
2023-03-11T00:03:23.241Z,13.00
2023-03-11T00:05:49.905Z,8.32
2023-03-11T00:08:18.121Z,7.78
2023-03-11T00:10:48.139Z,12.05
2023-03-11T00:13:18.320Z,8.23
2023-03-11T00:15:48.600Z,12.30
2023-03-11T00:18:15.277Z,11.20
2023-03-11T00:20:43.468Z,10.57
2023-03-11T00:23:11.658Z,15.95
2023-03-11T00:25:39.171Z,13.43
2023-03-11T00:28:07.471Z,11.93
2023-03-11T00:30:34.110Z,15.48
2023-03-11T00:33:00.642Z,12.15
2023-03-11T00:35:28.513Z,16.00
2023-03-11T00:37:56.633Z,12.88
2023-03-11T00:40:24.241Z,7.88
2023-03-11T00:42:50.784Z,15.32
2023-03-11T00:45:17.718Z,8.23
2023-03-11T00:47:44.427Z,12.95
2023-03-11T00:50:14.805Z,14.00
2023-03-11T00:52:41.259Z,11.73
2023-03-11T00:55:07.947Z,16.10
2023-03-11T00:57:34.378Z,15.02
2023-03-11T01:02:35.137Z,13.33
2023-03-11T01:07:44.981Z,9.38
2023-03-11T01:10:11.862Z,8.48
2023-03-11T01:12:38.489Z,14.35
2023-03-11T01:15:05.976Z,11.90
2023-03-11T01:17:32.430Z,8.25
2023-03-11T01:24:58.972Z,4.35
2023-03-11T01:27:25.628Z,11.75
2023-03-11T01:29:52.062Z,12.88
2023-03-11T01:32:18.592Z,14.63
2023-03-11T01:34:45.081Z,12.82
2023-03-11T01:37:11.527Z,13.25
2023-03-11T01:39:38.070Z,15.70
2023-03-11T01:42:04.735Z,13.13
2023-03-11T01:44:31.252Z,13.25
2023-03-11T01:47:00.167Z,10.77
2023-03-11T01:49:26.761Z,15.02
2023-03-11T01:51:55.666Z,9.20
2023-03-11T01:54:24.119Z,12.88
2023-03-11T01:56:50.816Z,11.98
2023-03-11T01:59:22.743Z,8.20
2023-03-11T02:01:52.555Z,12.50
2023-03-11T02:04:19.997Z,16.55
2023-03-11T02:06:46.663Z,13.07
2023-03-11T02:09:13.290Z,18.38
2023-03-11T02:11:39.818Z,12.43
2023-03-11T02:14:08.611Z,9.95
2023-03-11T02:16:35.184Z,8.15
2023-03-11T02:19:07.603Z,9.52
2023-03-11T02:21:34.507Z,11.18
2023-03-11T02:24:00.922Z,11.63
2023-03-11T02:26:39.469Z,12.80
2023-03-11T02:29:07.264Z,15.10
2023-03-11T02:31:34.781Z,14.07
2023-03-11T02:34:02.758Z,9.25
2023-03-11T02:36:32.507Z,11.80
2023-03-11T02:38:58.947Z,7.75
2023-03-11T02:41:25.584Z,5.40
2023-03-11T02:43:52.178Z,13.65
2023-03-11T02:46:18.940Z,10.82
2023-03-11T02:48:46.003Z,10.10
2023-03-11T02:51:12.458Z,14.98
2023-03-11T02:53:46.242Z,8.48
2023-03-11T02:56:12.674Z,15.68
2023-03-11T02:58:39.167Z,11.13
2023-03-11T03:01:05.771Z,7.85
2023-03-11T03:03:32.379Z,9.73
2023-03-11T03:05:58.859Z,14.35
2023-03-11T03:08:25.321Z,9.20
2023-03-11T03:10:51.842Z,15.63
2023-03-11T03:13:18.349Z,18.58
2023-03-11T03:15:44.854Z,5.75
2023-03-11T03:18:11.491Z,10.68
2023-03-11T03:20:38.044Z,15.55
2023-03-11T03:23:04.524Z,15.13
2023-03-11T03:25:31.021Z,20.98
2023-03-11T03:27:57.481Z,14.43
2023-03-11T03:30:24.009Z,15.15
2023-03-11T03:32:50.622Z,10.52
2023-03-11T03:35:17.172Z,15.95
2023-03-11T03:37:43.598Z,20.58
2023-03-11T03:40:10.531Z,19.45
2023-03-11T03:42:37.432Z,17.27
2023-03-11T03:45:07.942Z,13.10
2023-03-11T03:47:34.660Z,12.38
2023-03-11T03:50:02.391Z,9.85
2023-03-11T03:52:28.829Z,14.48
2023-03-11T03:54:55.273Z,12.27
2023-03-11T03:57:21.723Z,9.35
2023-03-11T03:59:48.163Z,11.52
2023-03-11T04:02:14.787Z,9.88
2023-03-11T04:04:41.318Z,16.63
2023-03-11T04:07:07.797Z,16.40
2023-03-11T04:09:34.402Z,13.23
2023-03-11T04:12:00.913Z,14.82
2023-03-11T04:14:27.331Z,18.50
2023-03-11T04:16:53.938Z,8.52
2023-03-11T04:19:20.478Z,7.35
2023-03-11T04:21:46.984Z,13.88
2023-03-11T04:24:13.460Z,13.85
2023-03-11T04:26:39.948Z,17.60
2023-03-11T04:29:06.450Z,14.82
2023-03-11T04:31:32.882Z,15.18
2023-03-11T04:33:59.648Z,11.95
2023-03-11T04:36:26.228Z,13.57
2023-03-11T04:38:52.680Z,14.23
2023-03-11T04:41:19.155Z,14.13
2023-03-11T04:43:45.630Z,13.32
2023-03-11T04:46:12.126Z,14.60
2023-03-11T04:48:38.671Z,13.25
2023-03-11T04:51:05.327Z,12.10
2023-03-11T04:53:31.812Z,11.77
2023-03-11T04:55:58.267Z,14.43
2023-03-11T04:58:25.177Z,17.00
2023-03-11T05:00:52.054Z,8.70
2023-03-11T05:03:18.886Z,10.60
2023-03-11T05:05:45.566Z,16.42
2023-03-11T05:08:12.026Z,15.30
2023-03-11T05:10:40.011Z,15.32
2023-03-11T05:13:06.493Z,12.82
2023-03-11T05:15:32.999Z,17.92
2023-03-11T05:17:59.529Z,11.23
2023-03-11T05:20:25.965Z,11.95
2023-03-11T05:22:52.432Z,13.50
2023-03-11T05:25:19.030Z,12.27
2023-03-11T05:27:45.462Z,10.20
2023-03-11T05:30:11.990Z,10.88
2023-03-11T05:32:38.590Z,13.10
2023-03-11T05:35:05.384Z,14.77
2023-03-11T05:37:32.443Z,12.98
2023-03-11T05:39:59.039Z,13.77
2023-03-11T05:42:25.584Z,9.40
2023-03-11T05:44:52.213Z,9.10
2023-03-11T05:47:19.528Z,12.80
2023-03-11T05:49:47.758Z,8.93
2023-03-11T05:52:14.268Z,12.65
2023-03-11T05:54:40.697Z,16.08
2023-03-11T05:57:09.482Z,18.38
2023-03-11T05:59:37.711Z,14.13
2023-03-11T06:02:04.298Z,7.45
2023-03-11T06:04:31.798Z,8.43
2023-03-11T06:06:58.422Z,14.57
2023-03-11T06:09:24.927Z,10.82
2023-03-11T06:11:51.371Z,14.45
2023-03-11T06:14:17.820Z,7.30
2023-03-11T06:16:44.302Z,11.40
2023-03-11T06:19:11.034Z,7.68
2023-03-11T06:21:37.544Z,11.73
2023-03-11T06:24:04.115Z,12.40
2023-03-11T06:26:31.283Z,15.25
2023-03-11T06:28:57.797Z,13.77
2023-03-11T06:31:26.134Z,10.93
2023-03-11T06:33:53.314Z,22.83
2023-03-11T06:36:21.782Z,22.98
2023-03-11T06:38:49.372Z,18.23
2023-03-11T06:41:16.331Z,22.85
2023-03-11T06:43:42.816Z,16.38
2023-03-11T06:46:12.716Z,20.15
2023-03-11T06:48:39.256Z,16.42
2023-03-11T06:51:05.789Z,13.18
2023-03-11T06:53:32.366Z,17.83
2023-03-11T06:56:02.823Z,14.15
2023-03-11T06:58:29.362Z,21.48
2023-03-11T07:00:59.967Z,15.30
2023-03-11T07:03:26.478Z,20.08
2023-03-11T07:05:52.913Z,21.60
2023-03-11T07:08:19.471Z,17.08
2023-03-11T07:10:45.992Z,18.55
2023-03-11T07:13:12.746Z,19.15
2023-03-11T07:15:39.210Z,12.45
2023-03-11T07:18:05.725Z,10.95
2023-03-11T07:20:32.245Z,14.70
2023-03-11T07:22:58.750Z,17.85
2023-03-11T07:25:25.734Z,14.30
2023-03-11T07:27:52.321Z,11.50
2023-03-11T07:30:19.368Z,15.90
2023-03-11T07:32:45.990Z,16.58
2023-03-11T07:35:12.451Z,14.93
2023-03-11T07:37:38.920Z,11.25
2023-03-11T07:40:05.669Z,14.93
2023-03-11T07:42:33.975Z,14.63
2023-03-11T07:45:00.440Z,13.60
2023-03-11T07:47:27.053Z,24.13
2023-03-11T07:49:55.168Z,14.07
2023-03-11T07:52:22.765Z,14.32
2023-03-11T07:54:49.308Z,16.05
2023-03-11T07:57:17.233Z,17.92
2023-03-11T07:59:43.929Z,12.40
2023-03-11T08:02:11.012Z,9.38
2023-03-11T08:04:37.546Z,10.95
2023-03-11T08:07:04.188Z,13.75
2023-03-11T08:09:30.728Z,10.18
2023-03-11T08:11:57.222Z,9.32
2023-03-11T08:14:23.733Z,8.85
2023-03-11T08:16:50.214Z,6.47
2023-03-11T08:19:16.676Z,8.85
2023-03-11T08:21:43.220Z,8.93
2023-03-11T08:24:10.954Z,12.00
2023-03-11T08:26:37.414Z,11.30
2023-03-11T08:29:04.252Z,12.30
2023-03-11T08:31:31.930Z,11.23
2023-03-11T08:34:02.853Z,11.70
2023-03-11T08:36:29.919Z,6.95
2023-03-11T08:38:56.448Z,10.00
2023-03-11T08:41:22.904Z,8.18
2023-03-11T08:43:52.227Z,10.20
2023-03-11T08:46:27.171Z,6.47
2023-03-11T08:48:54.211Z,5.60
2023-03-11T08:51:21.154Z,5.00
2023-03-11T08:53:47.971Z,6.82
2023-03-11T08:56:14.452Z,5.05
2023-03-11T08:58:40.970Z,6.43
2023-03-11T09:01:09.192Z,3.88
2023-03-11T09:03:35.795Z,5.47
2023-03-11T09:06:03.632Z,6.85
2023-03-11T09:08:30.168Z,6.18
2023-03-11T09:10:56.690Z,5.53
2023-03-11T09:13:23.223Z,3.08
2023-03-11T09:15:50.641Z,12.43
2023-03-11T09:18:17.673Z,3.20
2023-03-11T09:20:46.939Z,9.35
2023-03-11T09:23:14.439Z,3.03
2023-03-11T09:25:40.890Z,2.85
2023-03-11T09:28:09.267Z,8.35
2023-03-11T09:30:36.109Z,6.97
2023-03-11T09:33:02.710Z,5.90
2023-03-11T09:35:29.607Z,5.30
2023-03-11T09:37:56.421Z,4.47
2023-03-11T09:40:23.593Z,5.55
2023-03-11T09:42:50.043Z,7.18
2023-03-11T09:45:21.380Z,6.28
2023-03-11T09:48:14.394Z,4.78
2023-03-11T09:51:03.202Z,7.45
2023-03-11T09:53:45.850Z,3.67
2023-03-11T09:56:17.474Z,8.48
2023-03-11T09:58:45.861Z,7.65
2023-03-11T10:01:15.418Z,6.00
2023-03-11T10:03:42.283Z,9.30
2023-03-11T10:06:14.298Z,4.57
2023-03-11T10:08:44.167Z,4.78
2023-03-11T10:11:16.594Z,9.80
2023-03-11T10:13:52.338Z,5.50
2023-03-11T10:16:34.758Z,3.67
2023-03-11T10:19:25.443Z,8.85
2023-03-11T10:22:07.405Z,9.98
2023-03-11T10:24:57.727Z,4.45
2023-03-11T10:27:28.266Z,7.63
2023-03-11T10:30:02.876Z,4.40
2023-03-11T10:32:32.345Z,5.13
2023-03-11T10:35:25.284Z,5.25
2023-03-11T10:37:54.115Z,5.28
2023-03-11T10:40:24.164Z,5.00
2023-03-11T10:42:51.970Z,4.32
2023-03-11T10:45:20.138Z,2.67
2023-03-11T10:47:46.625Z,5.68
2023-03-11T10:50:15.791Z,4.75
2023-03-11T10:52:44.570Z,6.60
2023-03-11T10:55:15.843Z,6.47
2023-03-11T10:57:42.326Z,8.95
2023-03-11T11:00:17.283Z,8.68
2023-03-11T11:02:51.970Z,7.63
2023-03-11T11:05:18.410Z,4.60
2023-03-11T11:07:46.400Z,4.25
2023-03-11T11:10:12.803Z,3.33
2023-03-11T11:12:53.233Z,2.92
2023-03-11T11:15:25.971Z,5.68
2023-03-11T11:17:55.560Z,4.03
2023-03-11T11:20:23.113Z,5.05
2023-03-11T11:22:52.104Z,5.65
2023-03-11T11:25:44.906Z,7.07
2023-03-11T11:28:11.355Z,4.53
2023-03-11T11:30:37.915Z,4.35
2023-03-11T11:33:21.189Z,3.03
2023-03-11T11:35:52.341Z,9.38
2023-03-11T11:38:22.022Z,6.45
2023-03-11T11:40:48.772Z,4.10
2023-03-11T11:43:17.792Z,10.25
2023-03-11T11:45:49.357Z,4.65
2023-03-11T11:48:36.174Z,7.35
2023-03-11T11:51:06.274Z,7.93
2023-03-11T11:53:37.206Z,5.03
2023-03-11T11:56:03.799Z,7.50
2023-03-11T11:58:30.671Z,7.32
2023-03-11T12:00:57.133Z,7.40
2023-03-11T12:03:23.805Z,4.72
2023-03-11T12:05:58.973Z,5.47
2023-03-11T12:08:35.149Z,3.83
2023-03-11T12:11:03.738Z,6.15
2023-03-11T12:13:30.266Z,3.58
2023-03-11T12:16:02.936Z,6.53
2023-03-11T12:18:38.297Z,2.80
2023-03-11T12:21:23.932Z,4.97
2023-03-11T12:24:07.258Z,10.18
2023-03-11T12:26:36.238Z,4.97
2023-03-11T12:29:18.026Z,8.10
2023-03-11T12:31:45.464Z,5.68
2023-03-11T12:34:13.267Z,5.75
2023-03-11T12:36:41.271Z,5.93
2023-03-11T12:39:19.148Z,7.40
2023-03-11T12:41:45.768Z,3.17
2023-03-11T12:44:23.244Z,5.18
2023-03-11T12:47:00.603Z,3.47
2023-03-11T12:49:30.708Z,6.45
2023-03-11T12:52:05.183Z,4.93
2023-03-11T12:54:32.857Z,3.50
2023-03-11T12:57:02.498Z,8.85
2023-03-11T12:59:38.579Z,7.00
2023-03-11T13:02:24.585Z,6.85
2023-03-11T13:05:09.981Z,4.68
2023-03-11T13:07:39.544Z,4.45
2023-03-11T13:10:12.400Z,4.43
2023-03-11T13:12:43.882Z,6.07
2023-03-11T13:15:19.990Z,2.05
2023-03-11T13:18:02.123Z,4.93
2023-03-11T13:20:34.776Z,5.70
2023-03-11T13:23:01.425Z,2.67
2023-03-11T13:25:32.935Z,2.88
2023-03-11T13:28:17.869Z,4.72
2023-03-11T13:30:50.834Z,5.05
2023-03-11T13:33:17.360Z,3.47
2023-03-11T13:36:02.306Z,7.93
2023-03-11T13:38:47.391Z,6.70
2023-03-11T13:41:18.734Z,2.60
2023-03-11T13:43:46.950Z,4.28
2023-03-11T13:46:19.933Z,3.92
2023-03-11T13:48:48.247Z,2.95
2023-03-11T13:51:20.325Z,10.48
2023-03-11T13:53:53.531Z,3.75
2023-03-11T13:56:26.029Z,4.75
2023-03-11T13:58:52.490Z,6.18
2023-03-11T14:01:18.951Z,5.28
2023-03-11T14:03:46.393Z,3.60
2023-03-11T14:06:19.629Z,5.53
2023-03-11T14:08:57.071Z,2.42
2023-03-11T14:11:29.171Z,6.30
2023-03-11T14:13:55.609Z,4.55
2023-03-11T14:16:25.278Z,6.05
2023-03-11T14:19:01.889Z,3.78
2023-03-11T14:21:31.794Z,6.00
2023-03-11T14:23:58.342Z,3.47
2023-03-11T14:26:28.176Z,5.78
2023-03-11T14:28:56.135Z,4.18
2023-03-11T14:31:25.333Z,6.50
2023-03-11T14:34:08.087Z,3.63
2023-03-11T14:36:44.735Z,6.32
2023-03-11T14:39:25.458Z,7.97
2023-03-11T14:41:53.686Z,3.25
2023-03-11T14:44:20.982Z,6.15
2023-03-11T14:46:48.666Z,5.68
2023-03-11T14:49:17.443Z,5.05
2023-03-11T14:51:44.303Z,7.05
2023-03-11T14:54:17.658Z,2.65
2023-03-11T14:56:47.306Z,7.65
2023-03-11T14:59:13.949Z,6.90
2023-03-11T15:01:41.784Z,4.13
2023-03-11T15:04:11.323Z,6.00
2023-03-11T15:06:42.773Z,5.80
2023-03-11T15:09:14.834Z,6.13
2023-03-11T15:11:46.090Z,4.50
2023-03-11T15:14:26.294Z,6.78
2023-03-11T15:16:53.916Z,4.68
2023-03-11T15:19:21.627Z,5.93
2023-03-11T15:21:48.991Z,2.33
2023-03-11T15:24:21.055Z,7.28
2023-03-11T15:26:54.651Z,6.25
2023-03-11T15:31:48.684Z,8.30
2023-03-11T15:34:18.173Z,7.28
2023-03-11T15:36:47.771Z,2.83
2023-03-11T15:39:17.702Z,3.33
2023-03-11T15:41:46.084Z,6.90
2023-03-11T15:44:32.048Z,7.97
2023-03-11T15:47:01.562Z,4.60
2023-03-11T15:49:28.871Z,7.95
2023-03-11T15:52:02.054Z,5.85
2023-03-11T15:54:28.747Z,6.40
2023-03-11T15:56:58.841Z,4.80
2023-03-11T15:59:25.546Z,7.57
2023-03-11T16:01:52.097Z,3.53
2023-03-11T16:04:19.581Z,43.15
2023-03-11T16:06:49.591Z,14.05
2023-03-11T16:09:20.684Z,7.97
2023-03-11T16:11:47.297Z,7.20
2023-03-11T16:14:17.936Z,10.50
2023-03-11T16:16:44.793Z,12.20
2023-03-11T16:19:11.707Z,3.50
2023-03-11T16:21:44.267Z,21.17
2023-03-11T16:24:17.667Z,10.43
2023-03-11T16:26:44.194Z,4.78
2023-03-11T16:29:19.081Z,5.43
2023-03-11T16:31:46.748Z,7.40
2023-03-11T16:34:13.330Z,3.10
2023-03-11T16:36:39.805Z,2.70
2023-03-11T16:39:06.284Z,6.68
2023-03-11T16:41:42.769Z,7.22
2023-03-11T16:44:10.007Z,8.05
2023-03-11T16:46:36.642Z,5.00
2023-03-11T16:49:03.325Z,3.70
2023-03-11T16:51:29.834Z,6.47
2023-03-11T16:53:56.298Z,7.55
2023-03-11T16:56:22.881Z,5.10
2023-03-11T16:58:49.453Z,4.00
2023-03-11T17:01:17.073Z,5.15
2023-03-11T17:03:48.740Z,141.60
2023-03-11T17:06:15.955Z,134.35
2023-03-11T17:08:42.478Z,122.03
2023-03-11T17:11:19.619Z,60.13
2023-03-11T17:13:46.246Z,58.40
2023-03-11T17:16:13.181Z,73.57
2023-03-11T17:18:39.820Z,49.10
2023-03-11T17:21:07.549Z,29.42
2023-03-11T17:23:34.037Z,37.47
2023-03-11T17:26:01.713Z,34.88
2023-03-11T17:28:28.365Z,70.47
2023-03-11T17:30:54.864Z,30.05
2023-03-11T17:33:21.350Z,17.98
2023-03-11T17:35:47.882Z,15.80
2023-03-11T17:38:16.501Z,14.13
2023-03-11T17:40:43.325Z,14.63
2023-03-11T17:43:09.845Z,15.38
2023-03-11T17:45:38.146Z,11.98
2023-03-11T17:48:04.678Z,14.70
2023-03-11T17:50:31.316Z,15.40
2023-03-11T17:52:57.938Z,16.27
2023-03-11T17:55:24.529Z,10.52
2023-03-11T17:57:52.052Z,12.43
2023-03-11T18:00:18.733Z,11.70
2023-03-11T18:02:45.176Z,10.05
2023-03-11T18:05:11.682Z,15.20
2023-03-11T18:07:41.158Z,8.30
2023-03-11T18:10:08.101Z,9.20
2023-03-11T18:12:34.624Z,9.75
2023-03-11T18:15:04.225Z,14.68
2023-03-11T18:17:30.871Z,9.05
2023-03-11T18:19:59.612Z,8.18
2023-03-11T18:22:26.939Z,9.23
2023-03-11T18:24:53.654Z,9.68
2023-03-11T18:27:20.123Z,14.45
2023-03-11T18:29:46.581Z,18.90
2023-03-11T18:32:13.199Z,11.60
2023-03-11T18:34:40.513Z,11.25
2023-03-11T18:37:07.167Z,13.05
2023-03-11T18:39:33.655Z,12.70
2023-03-11T18:42:00.253Z,11.07
2023-03-11T18:44:27.889Z,14.10
2023-03-11T18:46:54.366Z,15.55
2023-03-11T18:49:21.437Z,14.13
2023-03-11T18:51:48.153Z,16.25
2023-03-11T18:54:14.946Z,15.07
2023-03-11T18:56:41.580Z,14.93
2023-03-11T18:59:12.402Z,14.25
2023-03-11T19:01:39.344Z,12.88
2023-03-11T19:04:06.071Z,10.95
2023-03-11T19:06:32.908Z,11.32
2023-03-11T19:08:59.738Z,16.85
2023-03-11T19:11:26.494Z,16.15
2023-03-11T19:13:53.476Z,10.38
2023-03-11T19:16:21.613Z,15.20
2023-03-11T19:18:48.509Z,9.73
2023-03-11T19:21:16.313Z,12.73
2023-03-11T19:23:43.429Z,18.52
2023-03-11T19:26:10.249Z,14.45
2023-03-11T19:28:37.168Z,17.35
2023-03-11T19:31:04.213Z,13.35
2023-03-11T19:33:31.170Z,15.07
2023-03-11T19:35:59.154Z,20.70
2023-03-11T19:38:26.441Z,17.98
2023-03-11T19:40:53.972Z,21.63
2023-03-11T19:43:20.995Z,23.55
2023-03-11T19:45:48.565Z,21.70
2023-03-11T19:48:15.254Z,20.92
2023-03-11T19:50:41.880Z,20.23
2023-03-11T19:53:08.523Z,17.23
2023-03-11T19:55:35.214Z,18.02
2023-03-11T19:58:01.784Z,14.50
2023-03-11T20:00:30.672Z,13.38
2023-03-11T20:02:57.207Z,14.65
2023-03-11T20:05:23.956Z,14.75
2023-03-11T20:07:50.621Z,17.02
2023-03-11T20:10:17.664Z,20.08
2023-03-11T20:12:59.582Z,21.30
2023-03-11T20:17:54.566Z,18.67
2023-03-11T20:20:21.883Z,11.55
2023-03-11T20:22:48.567Z,13.15
2023-03-11T20:25:16.204Z,15.02
2023-03-11T20:27:43.072Z,12.55
2023-03-11T20:30:10.202Z,15.48
2023-03-11T20:32:36.923Z,12.52
2023-03-11T20:35:04.158Z,15.75
2023-03-11T20:37:31.403Z,13.85
2023-03-11T20:40:01.268Z,10.80
2023-03-11T20:42:27.976Z,14.63
2023-03-11T20:44:54.726Z,10.20
2023-03-11T20:47:21.466Z,12.57
2023-03-11T20:49:48.414Z,11.75
2023-03-11T20:52:15.100Z,12.57
2023-03-11T20:54:41.659Z,9.95
2023-03-11T20:57:08.347Z,13.10
2023-03-11T20:59:35.151Z,12.52
2023-03-11T21:02:02.201Z,10.55
2023-03-11T21:04:29.132Z,17.25
2023-03-11T21:06:57.576Z,20.00
2023-03-11T21:09:24.644Z,14.27
2023-03-11T21:11:51.505Z,15.52
2023-03-11T21:14:19.042Z,9.45
2023-03-11T21:16:45.760Z,11.60
2023-03-11T21:19:13.622Z,13.85
2023-03-11T21:21:40.370Z,11.48
2023-03-11T21:24:07.131Z,10.23
2023-03-11T21:26:33.666Z,11.25
2023-03-11T21:29:00.763Z,19.85
2023-03-11T21:31:29.498Z,41.17
2023-03-11T21:34:01.238Z,25.48
2023-03-11T21:36:32.654Z,12.35
2023-03-11T21:39:00.973Z,10.75
2023-03-11T21:41:29.611Z,15.82
2023-03-11T21:43:57.107Z,11.90
2023-03-11T21:46:25.081Z,11.48
2023-03-11T21:48:51.693Z,16.20
2023-03-11T21:51:18.842Z,9.40
2023-03-11T21:53:45.881Z,10.07
2023-03-11T21:56:13.540Z,10.35
2023-03-11T21:58:40.843Z,14.07
2023-03-11T22:01:08.222Z,14.27
2023-03-11T22:03:35.981Z,11.35
2023-03-11T22:06:04.333Z,7.97
2023-03-11T22:08:31.057Z,8.30
2023-03-11T22:10:57.695Z,10.00
2023-03-11T22:13:24.664Z,7.82
2023-03-11T22:15:51.391Z,21.23
2023-03-11T22:18:18.189Z,13.10
2023-03-11T22:20:45.022Z,13.70
2023-03-11T22:23:11.549Z,22.15
2023-03-11T22:25:38.050Z,28.30
2023-03-11T22:28:04.589Z,15.38
2023-03-11T22:30:31.133Z,19.02
2023-03-11T22:32:57.607Z,16.63
2023-03-11T22:35:24.170Z,21.25
2023-03-11T22:37:50.712Z,15.25
2023-03-11T22:40:17.266Z,17.40
2023-03-11T22:42:43.814Z,17.98
2023-03-11T22:45:10.484Z,34.55
2023-03-11T22:47:37.027Z,31.75
2023-03-11T22:50:03.831Z,26.15
2023-03-11T22:52:30.359Z,65.32
2023-03-11T22:54:56.891Z,42.60
2023-03-11T22:57:23.312Z,25.13
2023-03-11T22:59:49.801Z,24.30
2023-03-11T23:02:16.273Z,13.23
2023-03-11T23:04:45.995Z,17.25
2023-03-11T23:07:12.506Z,10.57
2023-03-11T23:09:39.164Z,11.82
2023-03-11T23:12:06.986Z,15.43
2023-03-11T23:14:44.678Z,12.10
2023-03-11T23:17:12.058Z,15.93
2023-03-11T23:19:38.621Z,14.13
2023-03-11T23:22:05.193Z,8.98
2023-03-11T23:24:31.925Z,12.35
2023-03-11T23:26:58.393Z,10.88
2023-03-11T23:29:26.803Z,13.80
2023-03-11T23:31:53.332Z,7.75
2023-03-11T23:34:19.790Z,11.38
2023-03-11T23:36:46.250Z,10.23
2023-03-11T23:39:12.757Z,10.98
2023-03-11T23:41:39.224Z,9.18
2023-03-11T23:44:06.068Z,9.65
2023-03-11T23:46:32.656Z,19.50
2023-03-11T23:49:02.345Z,10.63
2023-03-11T23:51:30.337Z,9.05
2023-03-11T23:53:56.868Z,11.60
2023-03-11T23:56:25.351Z,10.60
2023-03-11T23:58:51.810Z,10.02
